»·PEaware :: N286WF KSBP-KBFL

N286WF :: KSBP-KBFL

FLIGHT INFORMATION

Flight Status: Arrived
Operator: Privately registered:
United States
More flights under this callsign
Pilot: Frank W. (16848)
Aircraft: Unknown
(P28U)
More flights by this aircraft type
Origin: KSBP San Luis Co Regl
United States
Destination: KBFL Meadows
United States
More flights between these airports :: More routes between these airports
Route: WYNNR FLW L17 EHF KBFL
File this flight plan on PilotEdge
Remarks: Recoding for youtube
Altitude:
(Current/Filed)
5,500ft
Speed:
(Current/Filed)
140kts
Departed: 19-Nov-19 12:57 PM
Arrived: 19-Nov-19 01:43 PM
Distance/Time
Traveled:
79nm/0:46
Distance/Time
To Go:
Arrived

Flight Plot

Page will automatically refresh every two minutes.


Map Options




Map Legend


Flown Route
Filed Route
Departure Airport
Arrival Airport
Navaid (VOR, NDB)
Fix

Horizontal Profiles

Position Reports

Time Latitude Longitude Heading Altitude Ground
Speed
19-Nov-19 12:42 35.236644 -120.636718 123 215ft 0kts
19-Nov-19 12:43 35.236644 -120.636718 123 215ft 0kts
19-Nov-19 12:44 35.236644 -120.636718 123 215ft 0kts
19-Nov-19 12:45 35.236644 -120.636718 123 215ft 0kts
19-Nov-19 12:46 35.236644 -120.636718 123 215ft 0kts
19-Nov-19 12:47 35.236629 -120.636686 113 215ft 2kts
19-Nov-19 12:48 35.236097 -120.636389 316 215ft 0kts
19-Nov-19 12:49 35.236097 -120.636390 316 215ft 0kts
19-Nov-19 12:50 35.236098 -120.636390 317 215ft 0kts
19-Nov-19 12:51 35.236097 -120.636389 316 215ft 0kts
19-Nov-19 12:52 35.236097 -120.636389 316 215ft 0kts
19-Nov-19 12:53 35.235350 -120.635626 124 215ft 18kts
19-Nov-19 12:54 35.234061 -120.633976 213 215ft 0kts
19-Nov-19 12:55 35.234000 -120.634027 213 215ft 4kts
19-Nov-19 12:56 35.234465 -120.635968 300 215ft 48kts
19-Nov-19 12:57 35.246325 -120.657237 306 777ft 92kts
19-Nov-19 12:58 35.234309 -120.662618 124 1527ft 104kts
19-Nov-19 12:59 35.217203 -120.632100 119 2381ft 110kts
19-Nov-19 13:00 35.199568 -120.601073 97 3200ft 114kts
19-Nov-19 13:01 35.192442 -120.563481 98 4066ft 114kts
19-Nov-19 13:02 35.184480 -120.525594 101 4929ft 117kts
19-Nov-19 13:03 35.175862 -120.486378 101 5512ft 142kts
19-Nov-19 13:04 35.164808 -120.437754 101 5491ft 146kts
19-Nov-19 13:05 35.155089 -120.392848 109 5593ft 120kts
19-Nov-19 13:06 35.145958 -120.352230 110 5448ft 124kts
19-Nov-19 13:07 35.136952 -120.311199 110 5436ft 126kts
19-Nov-19 13:08 35.127884 -120.269307 109 5436ft 128kts
19-Nov-19 13:09 35.118643 -120.226781 109 5455ft 129kts
19-Nov-19 13:10 35.113961 -120.183485 100 5501ft 130kts
19-Nov-19 13:11 35.110721 -120.139759 100 5547ft 128kts
19-Nov-19 13:12 35.107579 -120.096527 99 5538ft 128kts
19-Nov-19 13:13 35.104415 -120.052653 98 5471ft 126kts
19-Nov-19 13:14 35.101732 -120.008788 87 5417ft 127kts
19-Nov-19 13:15 35.099120 -119.964765 89 5476ft 129kts
19-Nov-19 13:16 35.095958 -119.920634 90 5530ft 131kts
19-Nov-19 13:17 35.092745 -119.876094 91 5611ft 134kts
19-Nov-19 13:18 35.095924 -119.831287 78 5657ft 135kts
19-Nov-19 13:19 35.101065 -119.786013 78 5691ft 135kts
19-Nov-19 13:20 35.106406 -119.737994 77 5397ft 141kts
19-Nov-19 13:21 35.111727 -119.691928 78 5458ft 134kts
19-Nov-19 13:22 35.117143 -119.644557 81 5360ft 142kts
19-Nov-19 13:23 35.122556 -119.595899 81 5308ft 145kts
19-Nov-19 13:24 35.127872 -119.548695 81 5453ft 140kts
19-Nov-19 13:25 35.133242 -119.500461 81 5376ft 145kts
19-Nov-19 13:26 35.138675 -119.451724 81 5344ft 144kts
19-Nov-19 13:27 35.163106 -119.414568 35 5309ft 139kts
19-Nov-19 13:28 35.193248 -119.384583 34 5301ft 140kts
19-Nov-19 13:29 35.223563 -119.354520 34 5312ft 140kts
19-Nov-19 13:30 35.253124 -119.325179 35 5306ft 140kts
19-Nov-19 13:31 35.283028 -119.295468 35 5297ft 140kts
19-Nov-19 13:32 35.313292 -119.265382 35 5288ft 140kts
19-Nov-19 13:33 35.343262 -119.235543 35 5280ft 140kts
19-Nov-19 13:34 35.368235 -119.199706 81 5001ft 146kts
19-Nov-19 13:35 35.363233 -119.152711 104 4234ft 140kts
19-Nov-19 13:36 35.357464 -119.106496 98 3470ft 138kts
19-Nov-19 13:37 35.356801 -119.059988 86 2792ft 133kts
19-Nov-19 13:38 35.375232 -119.023285 39 2133ft 119kts
19-Nov-19 13:39 35.399122 -119.014761 311 1692ft 98kts
19-Nov-19 13:40 35.417498 -119.035578 310 1365ft 85kts
19-Nov-19 13:41 35.432213 -119.054088 307 550ft 71kts
19-Nov-19 13:42 35.438243 -119.059775 87 496ft 0kts
19-Nov-19 13:43 35.435846 -119.056395 135 496ft 27kts
19-Nov-19 13:44 35.431627 -119.051291 135 496ft 17kts
19-Nov-19 13:45 35.429054 -119.048180 131 496ft 0kts
19-Nov-19 13:46 35.428447 -119.047402 98 496ft 10kts
19-Nov-19 13:47 35.428374 -119.045148 58 496ft 0kts
19-Nov-19 13:48 35.429540 -119.046798 344 496ft 13kts
19-Nov-19 13:49 35.368698 -119.191262 91 4936ft 139kts
19-Nov-19 13:50 35.364567 -119.035585 43 2386ft 131kts
19-Nov-19 13:51 35.389389 -119.011878 14 1810ft 97kts
19-Nov-19 13:52 35.411148 -119.027198 308 1627ft 86kts
19-Nov-19 13:53 35.426809 -119.047575 306 703ft 72kts
19-Nov-19 13:54 35.390175 -119.011529 7 1821ft 95kts
19-Nov-19 13:55 35.421498 -119.041015 307 1080ft 84kts
19-Nov-19 13:56 35.434757 -119.057328 311 505ft 68kts
19-Nov-19 13:57 35.430352 -119.046786 137 496ft 0kts

Navigation Log

Ident Type
Flight plan parsing failed, navigation log unavailable